Terminal Aerodrome Forecast
Issued by NWS

Home | Current Version | Previous Version | Graphics & Text | Print | Product List | Glossary On
Versions: 1 2 3 4 5 6 7 8 9 10 11 12 13 14 15 16
028
FTUS43 KMPX 200404 AAB
TAFAXN
TAF AMD
KAXN 200404Z 2004/2024 15018G25KT 6SM -RA BR VCTS OVC025CB
      WS020/17050KT
      TEMPO 2004/2008 2SM TSRA OVC015CB
     FM200800 24011KT 6SM -SHRA BR VCTS OVC025CB
     FM201000 26009KT P6SM VCSH OVC025
     FM201200 27013G20KT P6SM BKN040
     FM202300 21008KT P6SM SKC=

USA.gov is the U.S. government's official web portal to all federal, state and local government web resources and services.